sensor_id;sensor_type;location;lat;lon;timestamp;temperature;humidity
47961;DHT22;33721;48.852;9.936;2022-10-23T00:01:30;9.10;99.90
47961;DHT22;33721;48.852;9.936;2022-10-23T00:06:27;9.20;99.90
47961;DHT22;33721;48.852;9.936;2022-10-23T00:08:54;9.30;99.90
47961;DHT22;33721;48.852;9.936;2022-10-23T00:11:23;9.40;99.90
47961;DHT22;33721;48.852;9.936;2022-10-23T00:13:50;9.30;99.90
47961;DHT22;33721;48.852;9.936;2022-10-23T00:16:16;9.40;99.90
47961;DHT22;33721;48.852;9.936;2022-10-23T00:18:41;9.30;99.90
47961;DHT22;33721;48.852;9.936;2022-10-23T00:21:09;9.10;99.90
47961;DHT22;33721;48.852;9.936;2022-10-23T00:23:35;9.10;99.90
47961;DHT22;33721;48.852;9.936;2022-10-23T00:26:02;9.00;99.90
47961;DHT22;33721;48.852;9.936;2022-10-23T00:28:28;9.00;99.90
47961;DHT22;33721;48.852;9.936;2022-10-23T00:30:54;8.90;99.90
47961;DHT22;33721;48.852;9.936;2022-10-23T00:33:19;8.90;99.90
47961;DHT22;33721;48.852;9.936;2022-10-23T00:35:45;8.90;99.90
47961;DHT22;33721;48.852;9.936;2022-10-23T00:38:11;8.90;99.90
47961;DHT22;33721;48.852;9.936;2022-10-23T00:40:38;8.90;99.90
47961;DHT22;33721;48.852;9.936;2022-10-23T00:43:05;8.90;99.90
47961;DHT22;33721;48.852;9.936;2022-10-23T00:45:32;9.00;99.90
47961;DHT22;33721;48.852;9.936;2022-10-23T00:47:59;9.20;99.90
47961;DHT22;33721;48.852;9.936;2022-10-23T00:50:27;9.00;99.90
47961;DHT22;33721;48.852;9.936;2022-10-23T00:52:55;8.90;99.90
47961;DHT22;33721;48.852;9.936;2022-10-23T00:55:22;9.00;99.90
47961;DHT22;33721;48.852;9.936;2022-10-23T00:57:50;9.20;99.90
47961;DHT22;33721;48.852;9.936;2022-10-23T01:00:30;9.00;99.90
47961;DHT22;33721;48.852;9.936;2022-10-23T01:03:04;9.20;99.90
47961;DHT22;33721;48.852;9.936;2022-10-23T01:05:36;8.90;99.90
47961;DHT22;33721;48.852;9.936;2022-10-23T01:08:15;9.00;99.90
47961;DHT22;33721;48.852;9.936;2022-10-23T01:10:56;9.10;99.90
47961;DHT22;33721;48.852;9.936;2022-10-23T01:13:39;9.10;99.90
47961;DHT22;33721;48.852;9.936;2022-10-23T01:16:14;9.40;99.90
47961;DHT22;33721;48.852;9.936;2022-10-23T01:18:47;9.30;99.90
47961;DHT22;33721;48.852;9.936;2022-10-23T01:29:48;8.70;99.90
47961;DHT22;33721;48.852;9.936;2022-10-23T01:32:26;8.70;99.90
47961;DHT22;33721;48.852;9.936;2022-10-23T01:35:15;8.60;99.90
47961;DHT22;33721;48.852;9.936;2022-10-23T01:37:45;8.60;99.90
47961;DHT22;33721;48.852;9.936;2022-10-23T01:40:54;8.60;99.90
47961;DHT22;33721;48.852;9.936;2022-10-23T01:43:31;8.50;99.90
47961;DHT22;33721;48.852;9.936;2022-10-23T01:46:07;8.40;99.90
47961;DHT22;33721;48.852;9.936;2022-10-23T01:48:35;8.40;99.90
47961;DHT22;33721;48.852;9.936;2022-10-23T01:51:04;8.50;99.90
47961;DHT22;33721;48.852;9.936;2022-10-23T01:53:33;8.50;99.90
47961;DHT22;33721;48.852;9.936;2022-10-23T01:56:02;8.50;99.90
47961;DHT22;33721;48.852;9.936;2022-10-23T01:58:32;8.30;99.90
47961;DHT22;33721;48.852;9.936;2022-10-23T02:01:02;8.40;99.90
47961;DHT22;33721;48.852;9.936;2022-10-23T02:03:30;8.60;99.90
47961;DHT22;33721;48.852;9.936;2022-10-23T02:05:57;8.50;99.90
47961;DHT22;33721;48.852;9.936;2022-10-23T02:08:23;8.30;99.90
47961;DHT22;33721;48.852;9.936;2022-10-23T02:11:10;8.10;99.90
47961;DHT22;33721;48.852;9.936;2022-10-23T02:13:58;8.00;99.90
47961;DHT22;33721;48.852;9.936;2022-10-23T02:16:51;8.00;99.90
47961;DHT22;33721;48.852;9.936;2022-10-23T02:19:30;8.10;99.90
47961;DHT22;33721;48.852;9.936;2022-10-23T02:22:13;8.20;99.90
47961;DHT22;33721;48.852;9.936;2022-10-23T02:27:29;8.30;99.90
47961;DHT22;33721;48.852;9.936;2022-10-23T02:29:59;8.40;99.90
47961;DHT22;33721;48.852;9.936;2022-10-23T02:32:27;8.40;99.90
47961;DHT22;33721;48.852;9.936;2022-10-23T02:34:53;8.40;99.90
47961;DHT22;33721;48.852;9.936;2022-10-23T02:37:19;8.30;99.90
47961;DHT22;33721;48.852;9.936;2022-10-23T02:39:45;8.30;99.90
47961;DHT22;33721;48.852;9.936;2022-10-23T02:47:58;8.20;99.90
47961;DHT22;33721;48.852;9.936;2022-10-23T02:51:13;8.20;99.90
47961;DHT22;33721;48.852;9.936;2022-10-23T02:53:41;8.00;99.90
47961;DHT22;33721;48.852;9.936;2022-10-23T02:56:22;8.00;99.90
47961;DHT22;33721;48.852;9.936;2022-10-23T02:59:13;8.00;99.90
47961;DHT22;33721;48.852;9.936;2022-10-23T03:01:53;8.20;99.90
47961;DHT22;33721;48.852;9.936;2022-10-23T03:04:23;8.20;99.90
47961;DHT22;33721;48.852;9.936;2022-10-23T03:06:50;8.30;99.90
47961;DHT22;33721;48.852;9.936;2022-10-23T03:09:16;8.30;99.90
47961;DHT22;33721;48.852;9.936;2022-10-23T03:11:41;8.30;99.90
47961;DHT22;33721;48.852;9.936;2022-10-23T03:14:07;8.40;99.90
47961;DHT22;33721;48.852;9.936;2022-10-23T03:16:33;8.40;99.90
47961;DHT22;33721;48.852;9.936;2022-10-23T03:18:59;8.30;99.90
47961;DHT22;33721;48.852;9.936;2022-10-23T03:21:25;8.20;99.90
47961;DHT22;33721;48.852;9.936;2022-10-23T03:23:50;8.30;99.90
47961;DHT22;33721;48.852;9.936;2022-10-23T03:26:16;8.40;99.90
47961;DHT22;33721;48.852;9.936;2022-10-23T03:28:41;8.50;99.90
47961;DHT22;33721;48.852;9.936;2022-10-23T03:31:07;8.30;99.90
47961;DHT22;33721;48.852;9.936;2022-10-23T03:33:33;8.20;99.90
47961;DHT22;33721;48.852;9.936;2022-10-23T03:35:58;8.10;99.90
47961;DHT22;33721;48.852;9.936;2022-10-23T03:38:24;8.00;99.90
47961;DHT22;33721;48.852;9.936;2022-10-23T03:40:49;7.90;99.90
47961;DHT22;33721;48.852;9.936;2022-10-23T03:43:15;8.10;99.90
47961;DHT22;33721;48.852;9.936;2022-10-23T03:45:41;8.20;99.90
47961;DHT22;33721;48.852;9.936;2022-10-23T03:48:06;8.30;99.90
47961;DHT22;33721;48.852;9.936;2022-10-23T03:50:33;8.40;99.90
47961;DHT22;33721;48.852;9.936;2022-10-23T03:52:59;8.50;99.90
47961;DHT22;33721;48.852;9.936;2022-10-23T03:55:24;8.70;99.90
47961;DHT22;33721;48.852;9.936;2022-10-23T03:57:52;8.60;99.90
47961;DHT22;33721;48.852;9.936;2022-10-23T04:00:18;8.40;99.90
47961;DHT22;33721;48.852;9.936;2022-10-23T04:02:44;8.30;99.90
47961;DHT22;33721;48.852;9.936;2022-10-23T04:05:09;8.30;99.90
47961;DHT22;33721;48.852;9.936;2022-10-23T04:07:35;8.30;99.90
47961;DHT22;33721;48.852;9.936;2022-10-23T04:10:01;8.20;99.90
47961;DHT22;33721;48.852;9.936;2022-10-23T04:12:27;8.40;99.90
47961;DHT22;33721;48.852;9.936;2022-10-23T04:14:53;8.50;99.90
47961;DHT22;33721;48.852;9.936;2022-10-23T04:17:18;8.30;99.90
47961;DHT22;33721;48.852;9.936;2022-10-23T04:19:44;8.20;99.90
47961;DHT22;33721;48.852;9.936;2022-10-23T04:22:09;8.30;99.90
47961;DHT22;33721;48.852;9.936;2022-10-23T04:24:35;8.30;99.90
47961;DHT22;33721;48.852;9.936;2022-10-23T04:27:01;8.20;99.90
47961;DHT22;33721;48.852;9.936;2022-10-23T04:29:26;8.20;99.90
47961;DHT22;33721;48.852;9.936;2022-10-23T04:31:56;8.30;99.90
47961;DHT22;33721;48.852;9.936;2022-10-23T04:34:21;8.40;99.90
47961;DHT22;33721;48.852;9.936;2022-10-23T04:36:47;8.20;99.90
47961;DHT22;33721;48.852;9.936;2022-10-23T04:39:13;8.20;99.90
47961;DHT22;33721;48.852;9.936;2022-10-23T04:41:39;8.10;99.90
47961;DHT22;33721;48.852;9.936;2022-10-23T04:44:05;8.10;99.90
47961;DHT22;33721;48.852;9.936;2022-10-23T04:46:30;8.10;99.90
47961;DHT22;33721;48.852;9.936;2022-10-23T04:48:56;7.90;99.90
47961;DHT22;33721;48.852;9.936;2022-10-23T04:51:22;7.90;99.90
47961;DHT22;33721;48.852;9.936;2022-10-23T04:53:47;7.90;99.90
47961;DHT22;33721;48.852;9.936;2022-10-23T04:56:14;7.90;99.90
47961;DHT22;33721;48.852;9.936;2022-10-23T04:58:40;7.90;99.90
47961;DHT22;33721;48.852;9.936;2022-10-23T05:01:07;7.90;99.90
47961;DHT22;33721;48.852;9.936;2022-10-23T05:03:35;7.90;99.90
47961;DHT22;33721;48.852;9.936;2022-10-23T05:06:01;7.90;99.90
47961;DHT22;33721;48.852;9.936;2022-10-23T05:08:27;8.00;99.90
47961;DHT22;33721;48.852;9.936;2022-10-23T05:10:52;8.00;99.90
47961;DHT22;33721;48.852;9.936;2022-10-23T05:13:19;7.90;99.90
47961;DHT22;33721;48.852;9.936;2022-10-23T05:15:47;7.90;99.90
47961;DHT22;33721;48.852;9.936;2022-10-23T05:18:54;7.90;99.90
47961;DHT22;33721;48.852;9.936;2022-10-23T05:21:23;7.90;99.90
47961;DHT22;33721;48.852;9.936;2022-10-23T05:23:51;7.90;99.90
47961;DHT22;33721;48.852;9.936;2022-10-23T05:26:17;7.90;99.90
47961;DHT22;33721;48.852;9.936;2022-10-23T05:28:42;7.90;99.90
47961;DHT22;33721;48.852;9.936;2022-10-23T05:31:08;8.00;99.90
47961;DHT22;33721;48.852;9.936;2022-10-23T05:33:35;8.10;99.90
47961;DHT22;33721;48.852;9.936;2022-10-23T05:36:01;8.10;99.90
47961;DHT22;33721;48.852;9.936;2022-10-23T05:38:28;8.20;99.90
47961;DHT22;33721;48.852;9.936;2022-10-23T05:40:54;8.30;99.90
47961;DHT22;33721;48.852;9.936;2022-10-23T05:43:20;8.20;99.90
47961;DHT22;33721;48.852;9.936;2022-10-23T05:45:47;8.00;99.90
47961;DHT22;33721;48.852;9.936;2022-10-23T05:48:14;8.00;99.90
47961;DHT22;33721;48.852;9.936;2022-10-23T05:50:40;8.00;99.90
47961;DHT22;33721;48.852;9.936;2022-10-23T05:53:06;8.10;99.90
47961;DHT22;33721;48.852;9.936;2022-10-23T05:55:31;8.00;99.90
47961;DHT22;33721;48.852;9.936;2022-10-23T05:58:00;8.00;99.90
47961;DHT22;33721;48.852;9.936;2022-10-23T06:00:25;8.00;99.90
47961;DHT22;33721;48.852;9.936;2022-10-23T06:02:51;8.00;99.90
47961;DHT22;33721;48.852;9.936;2022-10-23T06:05:17;8.10;99.90
47961;DHT22;33721;48.852;9.936;2022-10-23T06:07:42;8.20;99.90
47961;DHT22;33721;48.852;9.936;2022-10-23T06:10:08;8.20;99.90
47961;DHT22;33721;48.852;9.936;2022-10-23T06:12:33;8.20;99.90
47961;DHT22;33721;48.852;9.936;2022-10-23T06:14:59;8.30;99.90
47961;DHT22;33721;48.852;9.936;2022-10-23T06:17:26;8.30;99.90
47961;DHT22;33721;48.852;9.936;2022-10-23T06:19:52;8.30;99.90
47961;DHT22;33721;48.852;9.936;2022-10-23T06:22:17;8.40;99.90
47961;DHT22;33721;48.852;9.936;2022-10-23T06:24:43;8.40;99.90
47961;DHT22;33721;48.852;9.936;2022-10-23T06:27:09;8.50;99.90
47961;DHT22;33721;48.852;9.936;2022-10-23T06:29:34;8.50;99.90
47961;DHT22;33721;48.852;9.936;2022-10-23T06:32:00;8.60;99.90
47961;DHT22;33721;48.852;9.936;2022-10-23T06:34:26;8.70;99.90
47961;DHT22;33721;48.852;9.936;2022-10-23T06:36:51;8.80;99.90
47961;DHT22;33721;48.852;9.936;2022-10-23T06:39:17;8.80;99.90
47961;DHT22;33721;48.852;9.936;2022-10-23T06:41:42;8.80;99.90
47961;DHT22;33721;48.852;9.936;2022-10-23T06:44:09;8.80;99.90
47961;DHT22;33721;48.852;9.936;2022-10-23T06:46:36;8.80;99.90
47961;DHT22;33721;48.852;9.936;2022-10-23T06:49:02;8.70;99.90
47961;DHT22;33721;48.852;9.936;2022-10-23T06:51:27;8.70;99.90
47961;DHT22;33721;48.852;9.936;2022-10-23T06:53:55;8.70;99.90
47961;DHT22;33721;48.852;9.936;2022-10-23T06:56:21;8.70;99.90
47961;DHT22;33721;48.852;9.936;2022-10-23T06:58:47;8.70;99.90
47961;DHT22;33721;48.852;9.936;2022-10-23T07:01:13;8.80;99.90
47961;DHT22;33721;48.852;9.936;2022-10-23T07:03:39;8.90;99.90
47961;DHT22;33721;48.852;9.936;2022-10-23T07:06:06;8.90;99.90
47961;DHT22;33721;48.852;9.936;2022-10-23T07:08:32;8.90;99.90
47961;DHT22;33721;48.852;9.936;2022-10-23T07:11:05;8.90;99.90
47961;DHT22;33721;48.852;9.936;2022-10-23T07:13:33;9.00;99.90
47961;DHT22;33721;48.852;9.936;2022-10-23T07:16:07;9.00;99.90
47961;DHT22;33721;48.852;9.936;2022-10-23T07:18:32;9.00;99.90
47961;DHT22;33721;48.852;9.936;2022-10-23T07:20:58;9.00;99.90
47961;DHT22;33721;48.852;9.936;2022-10-23T07:23:24;8.90;99.90
47961;DHT22;33721;48.852;9.936;2022-10-23T07:25:49;9.00;99.90
47961;DHT22;33721;48.852;9.936;2022-10-23T07:28:15;9.10;99.90
47961;DHT22;33721;48.852;9.936;2022-10-23T07:30:40;9.30;99.90
47961;DHT22;33721;48.852;9.936;2022-10-23T07:33:07;9.30;99.90
47961;DHT22;33721;48.852;9.936;2022-10-23T07:35:32;9.30;99.90
47961;DHT22;33721;48.852;9.936;2022-10-23T07:37:59;9.40;99.90
47961;DHT22;33721;48.852;9.936;2022-10-23T07:40:25;9.40;99.90
47961;DHT22;33721;48.852;9.936;2022-10-23T07:42:50;9.50;99.90
47961;DHT22;33721;48.852;9.936;2022-10-23T07:45:16;9.60;99.90
47961;DHT22;33721;48.852;9.936;2022-10-23T07:47:41;9.80;99.90
47961;DHT22;33721;48.852;9.936;2022-10-23T07:50:07;10.00;99.90
47961;DHT22;33721;48.852;9.936;2022-10-23T07:52:36;10.20;99.90
47961;DHT22;33721;48.852;9.936;2022-10-23T07:55:02;10.40;99.90
47961;DHT22;33721;48.852;9.936;2022-10-23T07:57:28;10.40;99.90
47961;DHT22;33721;48.852;9.936;2022-10-23T07:59:53;10.70;99.90
47961;DHT22;33721;48.852;9.936;2022-10-23T08:02:19;10.90;99.90
47961;DHT22;33721;48.852;9.936;2022-10-23T08:04:48;11.20;99.90
47961;DHT22;33721;48.852;9.936;2022-10-23T08:07:13;11.30;99.90
47961;DHT22;33721;48.852;9.936;2022-10-23T08:09:39;11.40;99.90
47961;DHT22;33721;48.852;9.936;2022-10-23T08:12:05;11.60;99.90
47961;DHT22;33721;48.852;9.936;2022-10-23T08:14:30;11.90;99.90
47961;DHT22;33721;48.852;9.936;2022-10-23T08:16:56;12.00;99.90
47961;DHT22;33721;48.852;9.936;2022-10-23T08:19:22;12.20;99.90
47961;DHT22;33721;48.852;9.936;2022-10-23T08:21:47;12.50;99.90
47961;DHT22;33721;48.852;9.936;2022-10-23T08:24:13;12.70;99.90
47961;DHT22;33721;48.852;9.936;2022-10-23T08:26:39;13.00;99.90
47961;DHT22;33721;48.852;9.936;2022-10-23T08:29:04;13.20;99.90
47961;DHT22;33721;48.852;9.936;2022-10-23T08:31:30;13.50;99.90
47961;DHT22;33721;48.852;9.936;2022-10-23T08:33:56;13.80;99.90
47961;DHT22;33721;48.852;9.936;2022-10-23T08:36:26;14.10;99.90
47961;DHT22;33721;48.852;9.936;2022-10-23T08:38:54;14.30;99.90
47961;DHT22;33721;48.852;9.936;2022-10-23T08:41:41;14.60;99.90
47961;DHT22;33721;48.852;9.936;2022-10-23T08:46:52;14.80;99.90
47961;DHT22;33721;48.852;9.936;2022-10-23T08:49:27;14.70;99.90
47961;DHT22;33721;48.852;9.936;2022-10-23T08:51:56;14.90;99.90
47961;DHT22;33721;48.852;9.936;2022-10-23T08:54:55;15.10;99.90
47961;DHT22;33721;48.852;9.936;2022-10-23T08:57:23;15.30;99.90
47961;DHT22;33721;48.852;9.936;2022-10-23T09:00:05;15.60;99.90
47961;DHT22;33721;48.852;9.936;2022-10-23T09:02:41;15.80;99.90
47961;DHT22;33721;48.852;9.936;2022-10-23T09:18:54;16.80;99.90
47961;DHT22;33721;48.852;9.936;2022-10-23T09:21:24;16.80;99.90
47961;DHT22;33721;48.852;9.936;2022-10-23T09:23:51;16.90;99.90
47961;DHT22;33721;48.852;9.936;2022-10-23T09:26:17;16.90;99.90
47961;DHT22;33721;48.852;9.936;2022-10-23T09:28:51;16.90;99.90
47961;DHT22;33721;48.852;9.936;2022-10-23T09:31:19;16.90;99.90
47961;DHT22;33721;48.852;9.936;2022-10-23T09:33:57;16.90;99.90
47961;DHT22;33721;48.852;9.936;2022-10-23T09:36:24;16.90;99.90
47961;DHT22;33721;48.852;9.936;2022-10-23T09:38:54;16.90;99.90
47961;DHT22;33721;48.852;9.936;2022-10-23T09:41:29;17.20;99.90
47961;DHT22;33721;48.852;9.936;2022-10-23T09:46:46;17.80;99.90
47961;DHT22;33721;48.852;9.936;2022-10-23T09:49:31;18.00;99.90
47961;DHT22;33721;48.852;9.936;2022-10-23T09:54:37;18.50;99.90
47961;DHT22;33721;48.852;9.936;2022-10-23T09:57:27;18.70;99.90
47961;DHT22;33721;48.852;9.936;2022-10-23T10:00:03;18.90;99.90
47961;DHT22;33721;48.852;9.936;2022-10-23T10:02:33;19.20;99.90
47961;DHT22;33721;48.852;9.936;2022-10-23T10:05:10;19.30;99.90
47961;DHT22;33721;48.852;9.936;2022-10-23T10:10:21;19.70;99.90
47961;DHT22;33721;48.852;9.936;2022-10-23T10:12:57;19.90;99.90
47961;DHT22;33721;48.852;9.936;2022-10-23T10:15:44;20.00;99.90
47961;DHT22;33721;48.852;9.936;2022-10-23T10:18:19;20.10;99.90
47961;DHT22;33721;48.852;9.936;2022-10-23T10:23:31;20.40;99.90
47961;DHT22;33721;48.852;9.936;2022-10-23T10:26:06;20.30;99.90
47961;DHT22;33721;48.852;9.936;2022-10-23T10:37:53;20.70;99.90
47961;DHT22;33721;48.852;9.936;2022-10-23T10:40:33;20.80;99.90
47961;DHT22;33721;48.852;9.936;2022-10-23T10:46:04;20.90;99.90
47961;DHT22;33721;48.852;9.936;2022-10-23T10:48:43;20.90;99.90
47961;DHT22;33721;48.852;9.936;2022-10-23T10:51:34;21.00;99.90
47961;DHT22;33721;48.852;9.936;2022-10-23T10:54:06;21.10;99.90
47961;DHT22;33721;48.852;9.936;2022-10-23T10:56:36;21.20;99.90
47961;DHT22;33721;48.852;9.936;2022-10-23T11:01:58;21.40;99.90
47961;DHT22;33721;48.852;9.936;2022-10-23T11:04:36;21.60;99.90
47961;DHT22;33721;48.852;9.936;2022-10-23T11:07:11;21.70;99.90
47961;DHT22;33721;48.852;9.936;2022-10-23T11:09:39;21.60;99.90
47961;DHT22;33721;48.852;9.936;2022-10-23T11:12:06;21.60;99.90
47961;DHT22;33721;48.852;9.936;2022-10-23T11:14:33;21.60;99.90
47961;DHT22;33721;48.852;9.936;2022-10-23T11:19:48;21.70;99.90
47961;DHT22;33721;48.852;9.936;2022-10-23T11:22:25;21.70;99.90
47961;DHT22;33721;48.852;9.936;2022-10-23T11:25:24;21.80;99.90
47961;DHT22;33721;48.852;9.936;2022-10-23T11:33:54;21.80;99.90
47961;DHT22;33721;48.852;9.936;2022-10-23T11:36:42;22.00;99.90
47961;DHT22;33721;48.852;9.936;2022-10-23T11:39:27;22.10;99.90
47961;DHT22;33721;48.852;9.936;2022-10-23T11:42:13;21.70;99.90
47961;DHT22;33721;48.852;9.936;2022-10-23T11:47:29;21.40;99.90
47961;DHT22;33721;48.852;9.936;2022-10-23T11:53:00;21.30;99.90
47961;DHT22;33721;48.852;9.936;2022-10-23T11:55:29;21.40;99.90
47961;DHT22;33721;48.852;9.936;2022-10-23T11:58:16;21.50;99.90
47961;DHT22;33721;48.852;9.936;2022-10-23T12:01:01;21.50;99.90
47961;DHT22;33721;48.852;9.936;2022-10-23T12:03:32;21.30;99.90
47961;DHT22;33721;48.852;9.936;2022-10-23T12:06:04;21.10;99.90
47961;DHT22;33721;48.852;9.936;2022-10-23T12:08:33;21.10;99.90
47961;DHT22;33721;48.852;9.936;2022-10-23T12:11:00;21.10;99.90
47961;DHT22;33721;48.852;9.936;2022-10-23T12:16:04;21.10;99.90
47961;DHT22;33721;48.852;9.936;2022-10-23T12:18:32;21.10;99.90
47961;DHT22;33721;48.852;9.936;2022-10-23T12:20:59;21.10;99.90
47961;DHT22;33721;48.852;9.936;2022-10-23T12:23:48;21.10;99.90
47961;DHT22;33721;48.852;9.936;2022-10-23T12:26:39;21.10;99.90
47961;DHT22;33721;48.852;9.936;2022-10-23T12:29:11;21.00;99.90
47961;DHT22;33721;48.852;9.936;2022-10-23T12:39:54;20.50;99.90
47961;DHT22;33721;48.852;9.936;2022-10-23T12:42:22;20.40;99.90
47961;DHT22;33721;48.852;9.936;2022-10-23T12:47:39;20.30;99.90
47961;DHT22;33721;48.852;9.936;2022-10-23T12:52:53;20.20;99.90
47961;DHT22;33721;48.852;9.936;2022-10-23T12:55:20;20.20;99.90
47961;DHT22;33721;48.852;9.936;2022-10-23T12:57:46;20.10;99.90
47961;DHT22;33721;48.852;9.936;2022-10-23T13:00:21;20.20;99.90
47961;DHT22;33721;48.852;9.936;2022-10-23T13:03:00;20.30;99.90
47961;DHT22;33721;48.852;9.936;2022-10-23T13:05:27;20.50;99.90
47961;DHT22;33721;48.852;9.936;2022-10-23T13:07:53;20.60;99.90
47961;DHT22;33721;48.852;9.936;2022-10-23T13:10:21;20.70;99.90
47961;DHT22;33721;48.852;9.936;2022-10-23T13:12:58;20.80;99.90
47961;DHT22;33721;48.852;9.936;2022-10-23T13:15:37;20.80;99.90
47961;DHT22;33721;48.852;9.936;2022-10-23T13:18:04;20.70;99.90
47961;DHT22;33721;48.852;9.936;2022-10-23T13:23:30;21.00;99.90
47961;DHT22;33721;48.852;9.936;2022-10-23T13:26:02;21.10;99.90
47961;DHT22;33721;48.852;9.936;2022-10-23T13:28:44;21.30;99.90
47961;DHT22;33721;48.852;9.936;2022-10-23T13:36:27;21.50;99.90
47961;DHT22;33721;48.852;9.936;2022-10-23T13:39:03;21.40;99.90
47961;DHT22;33721;48.852;9.936;2022-10-23T13:41:35;21.60;99.90
47961;DHT22;33721;48.852;9.936;2022-10-23T13:44:02;22.00;99.90
47961;DHT22;33721;48.852;9.936;2022-10-23T13:46:28;22.20;99.90
47961;DHT22;33721;48.852;9.936;2022-10-23T13:48:54;22.20;99.90
47961;DHT22;33721;48.852;9.936;2022-10-23T13:51:22;22.40;99.90
47961;DHT22;33721;48.852;9.936;2022-10-23T13:53:49;22.70;99.90
47961;DHT22;33721;48.852;9.936;2022-10-23T13:56:17;22.70;99.90
47961;DHT22;33721;48.852;9.936;2022-10-23T13:58:44;22.40;99.90
47961;DHT22;33721;48.852;9.936;2022-10-23T14:01:25;22.00;99.90
47961;DHT22;33721;48.852;9.936;2022-10-23T14:03:53;21.60;99.90
47961;DHT22;33721;48.852;9.936;2022-10-23T14:06:19;21.30;99.90
47961;DHT22;33721;48.852;9.936;2022-10-23T14:08:45;21.00;99.90
47961;DHT22;33721;48.852;9.936;2022-10-23T14:11:11;20.70;99.90
47961;DHT22;33721;48.852;9.936;2022-10-23T14:13:37;20.50;99.90
47961;DHT22;33721;48.852;9.936;2022-10-23T14:16:03;20.30;99.90
47961;DHT22;33721;48.852;9.936;2022-10-23T14:18:29;20.30;99.90
47961;DHT22;33721;48.852;9.936;2022-10-23T14:20:59;20.20;99.90
47961;DHT22;33721;48.852;9.936;2022-10-23T14:23:25;20.20;99.90
47961;DHT22;33721;48.852;9.936;2022-10-23T14:25:50;20.10;99.90
47961;DHT22;33721;48.852;9.936;2022-10-23T14:28:16;20.00;99.90
47961;DHT22;33721;48.852;9.936;2022-10-23T14:30:42;19.90;99.90
47961;DHT22;33721;48.852;9.936;2022-10-23T14:33:08;19.80;99.90
47961;DHT22;33721;48.852;9.936;2022-10-23T14:35:38;19.70;99.90
47961;DHT22;33721;48.852;9.936;2022-10-23T14:38:04;19.70;99.90
47961;DHT22;33721;48.852;9.936;2022-10-23T14:40:30;19.60;99.90
47961;DHT22;33721;48.852;9.936;2022-10-23T14:42:55;19.50;99.90
47961;DHT22;33721;48.852;9.936;2022-10-23T14:45:21;19.40;99.90
47961;DHT22;33721;48.852;9.936;2022-10-23T14:47:46;19.30;99.90
47961;DHT22;33721;48.852;9.936;2022-10-23T14:50:12;19.30;99.90
47961;DHT22;33721;48.852;9.936;2022-10-23T14:52:38;19.30;99.90
47961;DHT22;33721;48.852;9.936;2022-10-23T14:55:04;19.20;99.90
47961;DHT22;33721;48.852;9.936;2022-10-23T14:57:29;19.10;99.90
47961;DHT22;33721;48.852;9.936;2022-10-23T14:59:55;19.00;99.90
47961;DHT22;33721;48.852;9.936;2022-10-23T15:02:21;18.90;99.90
47961;DHT22;33721;48.852;9.936;2022-10-23T15:04:46;18.80;99.90
47961;DHT22;33721;48.852;9.936;2022-10-23T15:07:12;18.80;99.90
47961;DHT22;33721;48.852;9.936;2022-10-23T15:09:37;18.70;99.90
47961;DHT22;33721;48.852;9.936;2022-10-23T15:12:04;18.60;99.90
47961;DHT22;33721;48.852;9.936;2022-10-23T15:14:30;18.60;99.90
47961;DHT22;33721;48.852;9.936;2022-10-23T15:16:56;18.50;99.90
47961;DHT22;33721;48.852;9.936;2022-10-23T15:19:21;18.50;99.90
47961;DHT22;33721;48.852;9.936;2022-10-23T15:21:47;18.50;99.90
47961;DHT22;33721;48.852;9.936;2022-10-23T15:24:14;18.50;99.90
47961;DHT22;33721;48.852;9.936;2022-10-23T15:26:40;18.50;99.90
47961;DHT22;33721;48.852;9.936;2022-10-23T15:29:07;18.40;99.90
47961;DHT22;33721;48.852;9.936;2022-10-23T15:34:03;18.40;99.90
47961;DHT22;33721;48.852;9.936;2022-10-23T15:36:29;18.30;99.90
47961;DHT22;33721;48.852;9.936;2022-10-23T15:38:55;18.30;99.90
47961;DHT22;33721;48.852;9.936;2022-10-23T15:41:31;18.30;99.90
47961;DHT22;33721;48.852;9.936;2022-10-23T15:43:58;18.30;99.90
47961;DHT22;33721;48.852;9.936;2022-10-23T15:46:24;18.30;99.90
47961;DHT22;33721;48.852;9.936;2022-10-23T15:48:50;18.20;99.90
47961;DHT22;33721;48.852;9.936;2022-10-23T15:51:16;18.10;99.90
47961;DHT22;33721;48.852;9.936;2022-10-23T15:53:42;18.10;99.90
47961;DHT22;33721;48.852;9.936;2022-10-23T15:56:07;18.10;99.90
47961;DHT22;33721;48.852;9.936;2022-10-23T15:58:33;18.10;99.90
47961;DHT22;33721;48.852;9.936;2022-10-23T16:01:01;18.00;99.90
47961;DHT22;33721;48.852;9.936;2022-10-23T16:03:31;18.00;99.90
47961;DHT22;33721;48.852;9.936;2022-10-23T16:05:56;17.90;99.90
47961;DHT22;33721;48.852;9.936;2022-10-23T16:08:22;17.80;99.90
47961;DHT22;33721;48.852;9.936;2022-10-23T16:10:50;17.80;99.90
47961;DHT22;33721;48.852;9.936;2022-10-23T16:13:16;17.70;99.90
47961;DHT22;33721;48.852;9.936;2022-10-23T16:15:42;17.70;99.90
47961;DHT22;33721;48.852;9.936;2022-10-23T16:18:07;17.70;99.90
47961;DHT22;33721;48.852;9.936;2022-10-23T16:20:33;17.70;99.90
47961;DHT22;33721;48.852;9.936;2022-10-23T16:22:59;17.60;99.90
47961;DHT22;33721;48.852;9.936;2022-10-23T16:25:24;17.70;99.90
47961;DHT22;33721;48.852;9.936;2022-10-23T16:27:50;17.60;99.90
47961;DHT22;33721;48.852;9.936;2022-10-23T16:30:16;17.60;99.90
47961;DHT22;33721;48.852;9.936;2022-10-23T16:32:42;17.60;99.90
47961;DHT22;33721;48.852;9.936;2022-10-23T16:35:08;17.60;99.90
47961;DHT22;33721;48.852;9.936;2022-10-23T16:37:34;17.60;99.90
47961;DHT22;33721;48.852;9.936;2022-10-23T16:39:59;17.60;99.90
47961;DHT22;33721;48.852;9.936;2022-10-23T16:42:26;17.50;99.90
47961;DHT22;33721;48.852;9.936;2022-10-23T16:44:52;17.50;99.90
47961;DHT22;33721;48.852;9.936;2022-10-23T16:47:17;17.50;99.90
47961;DHT22;33721;48.852;9.936;2022-10-23T16:49:43;17.60;99.90
47961;DHT22;33721;48.852;9.936;2022-10-23T16:52:09;17.60;99.90
47961;DHT22;33721;48.852;9.936;2022-10-23T16:54:34;17.50;99.90
47961;DHT22;33721;48.852;9.936;2022-10-23T16:57:00;17.40;99.90
47961;DHT22;33721;48.852;9.936;2022-10-23T16:59:26;17.40;99.90
47961;DHT22;33721;48.852;9.936;2022-10-23T17:01:51;17.40;99.90
47961;DHT22;33721;48.852;9.936;2022-10-23T17:04:17;17.40;99.90
47961;DHT22;33721;48.852;9.936;2022-10-23T17:06:43;17.40;99.90
47961;DHT22;33721;48.852;9.936;2022-10-23T17:09:09;17.40;99.90
47961;DHT22;33721;48.852;9.936;2022-10-23T17:11:39;17.50;99.90
47961;DHT22;33721;48.852;9.936;2022-10-23T17:14:14;17.50;99.90
47961;DHT22;33721;48.852;9.936;2022-10-23T17:16:44;17.50;99.90
47961;DHT22;33721;48.852;9.936;2022-10-23T17:19:11;17.60;99.90
47961;DHT22;33721;48.852;9.936;2022-10-23T17:21:38;17.60;99.90
47961;DHT22;33721;48.852;9.936;2022-10-23T17:24:05;17.50;99.90
47961;DHT22;33721;48.852;9.936;2022-10-23T17:26:31;17.60;99.90
47961;DHT22;33721;48.852;9.936;2022-10-23T17:28:58;17.60;99.90
47961;DHT22;33721;48.852;9.936;2022-10-23T17:31:27;17.60;99.90
47961;DHT22;33721;48.852;9.936;2022-10-23T17:33:55;17.60;99.90